Time;durP1;ratioP1;P1;durP2;ratioP2;P2;SDS_P1;SDS_P2;PMS_P1;PMS_P2;Temp;Humidity;BMP_temperature;BMP_pressure;BME280_temperature;BME280_humidity;BME280_pressure;Samples;Min_cycle;Max_cycle;Signal;HPM_P1;HPM_P2
2021/05/04 00:04:02;;;;;;;3.83;3.60;;;9.80;70.80;;;;;;10464938;28;20231;-78
2021/05/04 00:09:05;;;;;;;3.70;3.40;;;9.90;69.60;;;;;;10463548;28;20205;-78
2021/05/04 00:14:07;;;;;;;4.27;3.97;;;10.00;68.40;;;;;;10462961;28;20243;-78
2021/05/04 00:19:10;;;;;;;4.23;3.93;;;10.10;67.80;;;;;;10461675;28;20236;-78
2021/05/04 00:24:12;;;;;;;6.80;4.00;;;10.20;68.40;;;;;;10465514;28;20227;-78
2021/05/04 00:29:13;;;;;;;3.73;3.53;;;10.20;68.20;;;;;;10444548;28;20208;-78
2021/05/04 00:34:16;;;;;;;4.50;4.20;;;10.30;68.60;;;;;;10463555;28;20225;-78
2021/05/04 00:39:17;;;;;;;4.20;3.80;;;10.40;67.80;;;;;;10464085;28;20665;-78
2021/05/04 00:44:19;;;;;;;4.10;3.80;;;10.40;67.40;;;;;;10447117;28;20221;-78
2021/05/04 00:49:21;;;;;;;4.37;4.07;;;10.40;67.70;;;;;;10463493;28;20284;-78
2021/05/04 00:54:24;;;;;;;4.10;3.80;;;10.40;69.50;;;;;;10464234;28;20185;-78
2021/05/04 00:59:26;;;;;;;4.83;4.43;;;10.40;69.40;;;;;;10436178;28;20204;-78
2021/05/04 01:04:29;;;;;;;4.53;4.20;;;10.40;69.60;;;;;;10439751;28;20231;-78
2021/05/04 01:09:30;;;;;;;5.37;4.70;;;10.50;68.70;;;;;;10463073;28;20205;-78
2021/05/04 01:14:33;;;;;;;5.30;4.07;;;10.40;69.40;;;;;;10471015;28;20208;-78
2021/05/04 01:19:35;;;;;;;4.50;4.20;;;10.40;70.50;;;;;;10470776;28;20216;-78
2021/05/04 01:24:38;;;;;;;4.77;4.23;;;10.40;71.10;;;;;;10485230;28;20228;-78
2021/05/04 01:29:40;;;;;;;4.23;3.93;;;10.40;71.70;;;;;;10500536;28;20303;-78
2021/05/04 01:34:41;;;;;;;4.10;3.80;;;10.40;71.80;;;;;;10482597;28;20199;-78
2021/05/04 01:39:45;;;;;;;4.00;3.70;;;10.40;69.10;;;;;;10501388;28;20260;-78
2021/05/04 01:44:47;;;;;;;4.30;4.00;;;10.30;68.90;;;;;;10483878;28;20216;-78
2021/05/04 01:49:48;;;;;;;4.57;4.20;;;10.30;67.10;;;;;;10487701;28;20224;-79
2021/05/04 01:54:52;;;;;;;3.90;3.70;;;10.30;65.90;;;;;;10501313;28;20207;-78
2021/05/04 01:59:54;;;;;;;4.30;4.00;;;10.30;65.90;;;;;;10502714;28;20221;-78
2021/05/04 02:04:55;;;;;;;4.30;3.90;;;10.30;65.30;;;;;;10482085;28;20310;-78
2021/05/04 02:09:58;;;;;;;4.73;4.37;;;10.30;65.40;;;;;;10496206;28;20346;-78
2021/05/04 02:14:59;;;;;;;4.90;4.20;;;10.30;65.60;;;;;;10497705;28;20570;-78
2021/05/04 02:20:01;;;;;;;4.27;3.97;;;10.30;66.00;;;;;;10499759;28;20220;-78
2021/05/04 02:25:05;;;;;;;3.57;3.27;;;10.30;65.10;;;;;;10498014;28;20227;-78
2021/05/04 02:30:08;;;;;;;4.13;3.83;;;10.30;65.20;;;;;;10481276;28;20582;-78
2021/05/04 02:35:11;;;;;;;4.00;3.80;;;10.30;65.20;;;;;;10497929;28;20197;-78
2021/05/04 02:40:14;;;;;;;3.53;3.23;;;10.30;66.00;;;;;;10481113;28;20763;-78
2021/05/04 02:45:16;;;;;;;4.10;3.43;;;10.30;65.90;;;;;;10493608;28;20224;-78
2021/05/04 02:50:18;;;;;;;4.10;3.80;;;10.40;65.70;;;;;;10496072;28;20216;-78
2021/05/04 02:55:22;;;;;;;3.43;3.23;;;10.40;65.20;;;;;;10497918;28;20224;-78
2021/05/04 03:00:24;;;;;;;4.37;3.97;;;10.40;64.90;;;;;;10479387;28;20296;-78
2021/05/04 03:05:25;;;;;;;3.30;3.10;;;10.40;64.90;;;;;;10491136;28;20307;-78
2021/05/04 03:10:28;;;;;;;3.73;3.53;;;10.30;66.00;;;;;;10480085;28;20355;-78
2021/05/04 03:15:29;;;;;;;3.80;3.50;;;10.30;65.30;;;;;;10492793;28;20321;-78
2021/05/04 03:20:31;;;;;;;3.63;3.40;;;10.30;64.70;;;;;;10495061;28;20220;-78
2021/05/04 03:25:34;;;;;;;4.20;3.90;;;10.30;65.00;;;;;;10476112;28;20224;-78
2021/05/04 03:30:36;;;;;;;3.20;3.00;;;10.40;64.90;;;;;;10495669;28;20676;-78
2021/05/04 03:35:38;;;;;;;3.10;2.90;;;10.40;64.60;;;;;;10488362;28;20660;-78
2021/05/04 03:40:40;;;;;;;3.30;3.10;;;10.40;64.90;;;;;;10510173;22;20276;-77
2021/05/04 03:45:41;;;;;;;3.63;3.33;;;10.40;64.30;;;;;;10535309;28;20204;-77
2021/05/04 03:50:44;;;;;;;3.70;3.50;;;10.50;63.90;;;;;;10517557;28;20227;-77
2021/05/04 03:55:47;;;;;;;3.73;3.27;;;10.50;64.40;;;;;;10517851;28;20632;-77
2021/05/04 04:00:49;;;;;;;3.60;3.03;;;10.60;63.50;;;;;;10500614;28;20231;-77
2021/05/04 04:05:52;;;;;;;2.87;2.57;;;10.70;63.50;;;;;;10532741;28;20313;-77
2021/05/04 04:10:55;;;;;;;2.70;2.60;;;10.70;62.40;;;;;;10512040;28;20598;-77
2021/05/04 04:15:56;;;;;;;3.33;3.03;;;10.80;62.60;;;;;;10534817;28;20207;-77
2021/05/04 04:20:58;;;;;;;3.40;3.20;;;10.80;63.00;;;;;;10528237;28;20604;-77
2021/05/04 04:26:00;;;;;;;3.20;3.00;;;10.80;62.90;;;;;;10534602;28;20305;-77
2021/05/04 04:31:02;;;;;;;3.00;2.80;;;10.90;62.80;;;;;;10535314;28;20212;-77
2021/05/04 04:36:05;;;;;;;3.23;2.93;;;10.90;62.70;;;;;;10515660;28;20567;-77
2021/05/04 04:41:07;;;;;;;3.00;2.80;;;10.90;62.90;;;;;;10521500;28;20592;-77
2021/05/04 04:46:08;;;;;;;3.30;3.00;;;11.00;63.30;;;;;;10531893;28;20196;-77
2021/05/04 04:51:10;;;;;;;3.23;2.97;;;11.10;62.60;;;;;;10523932;28;20230;-77
2021/05/04 04:56:12;;;;;;;3.50;3.30;;;11.10;63.00;;;;;;10541429;28;20196;-76
2021/05/04 05:01:14;;;;;;;3.20;3.00;;;11.10;64.80;;;;;;10540963;28;20231;-76
2021/05/04 05:06:15;;;;;;;3.00;2.80;;;11.20;65.30;;;;;;10529878;28;20192;-76
2021/05/04 05:11:19;;;;;;;2.83;2.67;;;11.30;64.00;;;;;;10520301;28;20273;-76
2021/05/04 05:16:22;;;;;;;3.47;3.20;;;11.30;63.30;;;;;;10530304;28;20231;-76
2021/05/04 05:21:24;;;;;;;3.97;3.67;;;11.40;63.50;;;;;;10522566;28;20220;-75
2021/05/04 05:26:28;;;;;;;2.60;2.40;;;11.50;63.20;;;;;;10541244;28;20571;-76
2021/05/04 05:31:31;;;;;;;2.80;2.70;;;11.50;63.40;;;;;;10540489;28;20299;-76
2021/05/04 05:36:33;;;;;;;3.93;2.33;;;11.50;62.90;;;;;;10539618;28;20227;-76
2021/05/04 05:41:36;;;;;;;3.07;2.80;;;11.50;63.10;;;;;;10539858;28;20642;-75
2021/05/04 05:46:37;;;;;;;3.93;2.70;;;11.60;62.90;;;;;;10538360;28;20655;-76
2021/05/04 05:51:39;;;;;;;3.67;3.37;;;11.60;63.10;;;;;;10521023;28;20548;-75
2021/05/04 05:56:41;;;;;;;3.57;2.87;;;11.70;62.90;;;;;;10539802;28;20585;-76
2021/05/04 06:01:43;;;;;;;3.80;3.60;;;11.80;63.40;;;;;;10520704;28;20554;-76
2021/05/04 06:06:48;;;;;;;3.47;3.27;;;11.90;63.20;;;;;;10520750;28;20724;-76
2021/05/04 06:11:50;;;;;;;3.50;3.20;;;12.10;62.70;;;;;;10538217;28;20225;-76
2021/05/04 06:16:52;;;;;;;3.50;3.20;;;12.20;62.60;;;;;;10538300;28;20196;-76
2021/05/04 06:21:53;;;;;;;3.17;2.97;;;12.30;63.00;;;;;;10538587;28;20227;-78
2021/05/04 06:26:56;;;;;;;3.07;2.87;;;12.50;62.70;;;;;;10527716;28;20227;-78
2021/05/04 06:32:02;;;;;;;3.83;3.53;;;12.70;61.90;;;;;;10539537;28;20211;-79
2021/05/04 06:37:03;;;;;;;4.27;3.13;;;12.80;62.00;;;;;;10506415;28;20214;-78
2021/05/04 06:42:06;;;;;;;4.03;3.20;;;13.00;61.70;;;;;;10539254;28;20691;-78
2021/05/04 06:47:08;;;;;;;3.20;3.00;;;13.10;60.50;;;;;;10519207;28;20599;-77
2021/05/04 06:52:10;;;;;;;3.37;3.10;;;13.20;61.10;;;;;;10537634;28;20706;-78
2021/05/04 06:57:12;;;;;;;3.40;3.10;;;13.30;60.00;;;;;;10519312;28;20207;-78
2021/05/04 07:02:14;;;;;;;2.80;2.50;;;13.40;58.20;;;;;;10510780;28;20637;-78
2021/05/04 07:07:16;;;;;;;3.60;2.90;;;13.50;58.30;;;;;;10496925;28;20329;-78
2021/05/04 07:12:18;;;;;;;3.53;3.33;;;13.70;58.00;;;;;;10534839;28;20743;-78
2021/05/04 07:17:20;;;;;;;2.80;2.70;;;13.90;59.00;;;;;;10536029;28;20581;-78
2021/05/04 07:22:24;;;;;;;5.23;2.90;;;14.00;58.00;;;;;;10536596;28;20300;-78
2021/05/04 07:27:27;;;;;;;3.23;2.93;;;14.20;57.50;;;;;;10536055;28;20245;-78
2021/05/04 07:32:28;;;;;;;3.67;3.27;;;14.50;57.90;;;;;;10510721;28;20216;-78
2021/05/04 07:37:30;;;;;;;2.83;2.63;;;14.80;57.00;;;;;;10535917;28;20207;-78
2021/05/04 07:42:33;;;;;;;2.87;2.43;;;15.10;56.40;;;;;;10536177;28;20241;-78
2021/05/04 07:47:34;;;;;;;2.70;2.60;;;15.30;55.20;;;;;;10517584;28;20687;-78
2021/05/04 07:52:37;;;;;;;2.67;2.47;;;15.50;56.10;;;;;;10517525;28;20302;-78
2021/05/04 07:57:39;;;;;;;3.43;2.90;;;15.90;55.50;;;;;;10517362;28;20626;-78
2021/05/04 08:02:41;;;;;;;3.07;2.47;;;16.10;54.40;;;;;;10535515;28;20251;-78
2021/05/04 08:07:43;;;;;;;3.07;2.87;;;16.30;54.30;;;;;;10509415;28;20253;-78
2021/05/04 08:12:45;;;;;;;2.80;2.60;;;16.40;52.90;;;;;;10538595;28;20240;-78
2021/05/04 08:17:52;;;;;;;2.43;2.23;;;16.30;52.70;;;;;;10544065;28;20191;-78
2021/05/04 08:22:55;;;;;;;2.77;2.50;;;16.40;52.80;;;;;;10543984;28;20222;-78
2021/05/04 08:27:57;;;;;;;2.83;2.63;;;16.30;52.60;;;;;;10543612;28;20200;-78
2021/05/04 08:32:59;;;;;;;2.67;2.57;;;16.40;52.70;;;;;;10543353;28;20623;-78
2021/05/04 08:38:00;;;;;;;3.43;2.70;;;16.40;52.60;;;;;;10542779;28;20215;-78
2021/05/04 08:43:03;;;;;;;4.80;2.53;;;16.80;52.60;;;;;;10524766;28;20932;-78
2021/05/04 08:48:05;;;;;;;4.40;3.13;;;17.10;52.30;;;;;;10540462;28;20207;-78
2021/05/04 08:53:07;;;;;;;4.07;2.83;;;17.30;51.10;;;;;;10523921;28;20592;-78
2021/05/04 08:58:10;;;;;;;3.60;2.80;;;17.60;51.40;;;;;;10516546;28;20204;-78
2021/05/04 09:03:14;;;;;;;2.70;2.50;;;18.00;50.50;;;;;;10506763;28;20228;-78
2021/05/04 09:08:39;;;;;;;3.97;2.70;;;18.20;50.00;;;;;;10540919;28;20237;-78
2021/05/04 09:13:51;;;;;;;2.93;2.73;;;18.40;50.70;;;;;;10522449;28;20222;-78
2021/05/04 09:24:21;;;;;;;3.07;2.87;;;18.10;49.20;;;;;;10526433;28;20702;-78
2021/05/04 09:29:28;;;;;;;3.10;2.90;;;17.90;50.20;;;;;;10521795;28;20208;-78
2021/05/04 09:34:29;;;;;;;3.17;2.87;;;17.80;49.40;;;;;;10539764;28;20222;-78
2021/05/04 09:39:34;;;;;;;4.00;3.20;;;17.80;49.90;;;;;;10533913;28;20299;-78
2021/05/04 09:44:37;;;;;;;2.93;2.83;;;18.00;50.40;;;;;;10540151;28;20227;-78
2021/05/04 09:49:40;;;;;;;2.73;2.63;;;18.20;50.20;;;;;;10539867;28;20203;-78
2021/05/04 09:54:42;;;;;;;2.53;2.43;;;18.60;49.00;;;;;;10532910;28;20200;-78
2021/05/04 09:59:47;;;;;;;2.80;2.67;;;18.80;49.00;;;;;;10539074;28;20279;-78
2021/05/04 10:04:51;;;;;;;2.80;2.60;;;18.80;48.50;;;;;;10539295;28;20230;-78
2021/05/04 10:09:54;;;;;;;3.37;3.10;;;19.00;48.50;;;;;;10531744;28;20219;-78
2021/05/04 10:15:02;;;;;;;2.90;2.70;;;19.20;48.60;;;;;;10538746;28;20321;-78
2021/05/04 10:20:06;;;;;;;3.80;3.10;;;19.50;47.40;;;;;;10540263;28;20287;-78
2021/05/04 10:25:11;;;;;;;2.53;2.43;;;19.50;47.00;;;;;;10538669;28;20222;-78
2021/05/04 10:30:18;;;;;;;3.00;2.80;;;19.30;46.40;;;;;;10531778;28;20724;-78
2021/05/04 10:35:38;;;;;;;2.33;2.23;;;19.10;45.50;;;;;;10504252;28;20193;-78
2021/05/04 10:40:41;;;;;;;2.70;2.50;;;18.90;47.00;;;;;;10537552;28;20231;-78
2021/05/04 10:45:44;;;;;;;2.90;2.80;;;18.90;47.60;;;;;;10530845;28;20778;-78
2021/05/04 10:50:48;;;;;;;2.70;2.60;;;18.90;48.00;;;;;;10513560;28;20231;-78
2021/05/04 10:56:08;;;;;;;2.60;2.50;;;19.00;47.00;;;;;;10518633;28;20195;-78
2021/05/04 11:01:16;;;;;;;2.53;2.30;;;19.10;48.00;;;;;;10519272;28;20215;-78
2021/05/04 11:06:57;;;;;;;2.83;2.63;;;19.00;47.00;;;;;;10536698;28;20196;-78
2021/05/04 11:11:59;;;;;;;2.10;2.00;;;19.00;46.90;;;;;;10512708;28;20245;-78
2021/05/04 11:17:10;;;;;;;5.10;2.40;;;19.10;45.80;;;;;;10536228;28;20209;-78
2021/05/04 11:22:18;;;;;;;4.03;2.70;;;19.00;46.10;;;;;;10511162;28;20216;-78
2021/05/04 11:27:30;;;;;;;2.70;2.50;;;18.70;46.20;;;;;;10522981;28;20196;-78
2021/05/04 11:32:41;;;;;;;2.33;2.23;;;18.60;46.90;;;;;;10517576;28;20216;-78
2021/05/04 11:37:46;;;;;;;3.97;3.00;;;18.70;47.80;;;;;;10535819;28;20208;-78
2021/05/04 11:42:49;;;;;;;2.57;2.37;;;18.50;47.50;;;;;;10521566;28;20223;-78
2021/05/04 11:47:53;;;;;;;3.17;2.73;;;18.40;48.20;;;;;;10532139;28;20195;-78
2021/05/04 11:52:58;;;;;;;3.30;3.00;;;18.40;48.40;;;;;;10511799;28;20220;-78
2021/05/04 11:58:01;;;;;;;2.73;2.53;;;18.40;49.00;;;;;;10528594;28;20211;-78
2021/05/04 12:03:07;;;;;;;2.83;2.63;;;18.40;49.20;;;;;;10524758;28;20234;-78
2021/05/04 12:08:10;;;;;;;5.50;2.27;;;18.50;49.10;;;;;;10511682;28;20192;-78
2021/05/04 12:13:14;;;;;;;3.00;2.80;;;18.40;49.40;;;;;;10517913;28;20219;-78
2021/05/04 12:18:19;;;;;;;2.83;2.60;;;18.10;50.50;;;;;;10492031;28;20203;-78
2021/05/04 12:23:26;;;;;;;2.70;2.60;;;18.10;51.00;;;;;;10511879;28;20297;-78
2021/05/04 12:28:31;;;;;;;3.13;2.83;;;18.00;51.70;;;;;;10511705;28;20199;-78
2021/05/04 12:33:34;;;;;;;2.60;2.40;;;18.00;52.10;;;;;;10508264;28;20258;-78
2021/05/04 12:38:41;;;;;;;1.93;1.83;;;17.90;53.60;;;;;;10498527;28;20250;-78
2021/05/04 12:44:00;;;;;;;2.60;2.40;;;18.10;55.50;;;;;;10525326;28;20251;-79
2021/05/04 12:49:03;;;;;;;3.10;2.80;;;18.20;55.60;;;;;;10521075;28;20231;-80
2021/05/04 12:54:10;;;;;;;2.77;2.57;;;18.30;57.00;;;;;;10507083;28;20216;-78
2021/05/04 12:59:13;;;;;;;2.43;2.23;;;18.30;57.70;;;;;;10521734;28;20199;-78
2021/05/04 13:04:31;;;;;;;2.40;2.30;;;18.30;57.60;;;;;;10542071;28;20306;-78
2021/05/04 13:15:10;;;;;;;2.70;2.50;;;18.20;55.40;;;;;;10522834;28;20675;-78
2021/05/04 13:30:57;;;;;;;2.50;2.30;;;18.20;56.40;;;;;;10535126;28;20645;-78
2021/05/04 13:36:04;;;;;;;2.00;1.90;;;18.20;56.80;;;;;;10513667;28;20226;-79
2021/05/04 13:52:01;;;;;;;;;;;;;;;;;;;;;
2021/05/04 13:57:26;;;;;;;3.17;2.63;;;18.00;55.60;;;;;;10460997;28;20253;-78
2021/05/04 14:02:48;;;;;;;2.20;2.00;;;17.90;57.10;;;;;;10546310;28;20223;-78
2021/05/04 14:29:12;;;;;;;2.17;2.07;;;16.90;62.80;;;;;;10528749;28;20199;-78
2021/05/04 14:34:14;;;;;;;2.10;1.90;;;16.90;64.40;;;;;;10537049;28;20254;-78
2021/05/04 14:39:24;;;;;;;2.33;1.70;;;16.80;61.80;;;;;;10540314;28;20207;-78
2021/05/04 14:45:05;;;;;;;5.20;2.10;;;16.80;62.60;;;;;;10533214;28;20692;-78
2021/05/04 14:55:43;;;;;;;4.13;2.67;;;16.80;65.20;;;;;;10510754;28;20215;-78
2021/05/04 15:01:38;;;;;;;2.93;2.73;;;16.70;68.10;;;;;;10561398;22;20232;-78
2021/05/04 15:07:23;;;;;;;2.87;2.67;;;16.50;70.70;;;;;;10504588;28;20250;-78
2021/05/04 15:12:26;;;;;;;3.13;2.93;;;16.40;71.70;;;;;;10513178;28;20588;-79
2021/05/04 15:17:32;;;;;;;3.53;3.23;;;16.30;71.80;;;;;;10477179;28;20218;-78
2021/05/04 15:22:34;;;;;;;2.70;2.50;;;16.30;70.80;;;;;;10494428;28;20335;-78
2021/05/04 15:27:36;;;;;;;2.53;2.43;;;16.10;72.00;;;;;;10491204;28;20198;-80
2021/05/04 15:32:45;;;;;;;4.90;3.80;;;15.80;77.10;;;;;;10483586;28;20220;-79
2021/05/04 15:37:46;;;;;;;2.70;2.50;;;15.70;78.40;;;;;;10479662;28;20258;-80
2021/05/04 15:42:49;;;;;;;2.40;2.20;;;15.60;75.30;;;;;;10482067;28;20300;-80
2021/05/04 15:47:54;;;;;;;3.47;3.10;;;15.50;77.00;;;;;;10480388;28;20292;-80
2021/05/04 15:53:04;;;;;;;3.23;2.93;;;15.30;80.30;;;;;;10482009;28;20220;-80
2021/05/04 16:03:44;;;;;;;3.30;3.10;;;14.80;86.60;;;;;;10485391;28;20224;-78
2021/05/04 16:08:52;;;;;;;3.43;3.23;;;14.70;87.50;;;;;;10472968;28;20318;-79
2021/05/04 16:13:55;;;;;;;4.00;3.70;;;14.50;88.40;;;;;;10462597;28;20220;-79
2021/05/04 16:19:01;;;;;;;12.70;6.70;;;14.30;90.20;;;;;;10488750;28;20204;-77
2021/05/04 16:24:20;;;;;;;3.40;3.20;;;14.10;91.90;;;;;;10455300;28;20216;-77
2021/05/04 16:29:36;;;;;;;4.30;4.00;;;13.80;91.80;;;;;;10471151;28;20246;-77
2021/05/04 16:34:38;;;;;;;4.20;3.90;;;13.60;94.10;;;;;;10508054;28;20733;-77
2021/05/04 16:39:40;;;;;;;4.40;4.10;;;13.50;95.50;;;;;;10506863;28;20193;-77
2021/05/04 16:44:42;;;;;;;5.50;4.20;;;13.40;96.80;;;;;;10514054;28;20228;-77
2021/05/04 16:49:44;;;;;;;4.83;4.43;;;13.30;97.20;;;;;;10493736;28;20612;-78
2021/05/04 16:54:45;;;;;;;4.37;4.07;;;13.20;97.80;;;;;;10488420;28;20196;-77
2021/05/04 16:59:48;;;;;;;4.30;4.00;;;13.20;98.40;;;;;;10492078;28;20284;-77
2021/05/04 17:04:49;;;;;;;5.10;4.60;;;13.20;99.00;;;;;;10471040;28;20309;-77
2021/05/04 17:10:09;;;;;;;3.87;3.60;;;13.20;99.40;;;;;;10481608;28;20687;-77
2021/05/04 17:15:13;;;;;;;4.27;3.87;;;13.20;98.40;;;;;;10480970;28;20421;-77
2021/05/04 17:20:16;;;;;;;4.27;3.87;;;13.10;98.70;;;;;;10503555;28;20684;-77
2021/05/04 17:25:22;;;;;;;4.40;4.10;;;13.10;98.60;;;;;;10481834;28;20251;-77
2021/05/04 17:30:25;;;;;;;4.23;3.93;;;13.20;98.70;;;;;;10484365;28;20243;-77
2021/05/04 17:35:27;;;;;;;4.47;4.17;;;13.30;98.90;;;;;;10500729;28;20189;-77
2021/05/04 17:40:28;;;;;;;4.40;4.10;;;13.40;98.40;;;;;;10489271;28;20274;-77
2021/05/04 17:45:31;;;;;;;3.83;3.60;;;13.50;97.60;;;;;;10494407;28;20224;-78
2021/05/04 17:50:33;;;;;;;4.27;3.97;;;13.50;97.90;;;;;;10497351;28;20224;-77
2021/05/04 17:55:35;;;;;;;4.27;3.97;;;13.50;98.60;;;;;;10504889;28;20192;-77
2021/05/04 18:00:37;;;;;;;4.23;4.03;;;13.60;98.80;;;;;;10502761;28;20223;-77
2021/05/04 18:05:39;;;;;;;4.80;4.50;;;13.60;98.20;;;;;;10512993;28;20299;-78
2021/05/04 18:10:40;;;;;;;4.30;4.00;;;13.60;98.20;;;;;;10479609;28;20220;-78
2021/05/04 18:21:04;;;;;;;7.13;4.17;;;13.60;98.30;;;;;;10491239;28;20220;-78
2021/05/04 18:26:07;;;;;;;4.43;4.13;;;13.50;98.40;;;;;;10502254;28;20700;-77
2021/05/04 18:31:12;;;;;;;4.17;3.87;;;13.50;99.40;;;;;;10515210;28;20685;-77
2021/05/04 18:36:21;;;;;;;4.50;4.20;;;13.50;99.90;;;;;;10499866;28;20287;-77
2021/05/04 18:47:28;;;;;;;4.70;4.33;;;13.50;99.90;;;;;;10495255;28;20263;-77
2021/05/04 19:24:41;;;;;;;4.00;3.70;;;13.00;99.90;;;;;;10491841;28;20228;-78
2021/05/04 19:29:51;;;;;;;4.83;4.53;;;13.00;99.90;;;;;;10476452;28;20907;-78
2021/05/04 20:12:17;;;;;;;2.57;2.43;;;12.70;99.90;;;;;;10493441;28;20231;-78
2021/05/04 20:17:18;;;;;;;2.10;1.93;;;12.60;99.90;;;;;;10486820;28;20208;-78
2021/05/04 20:22:21;;;;;;;2.00;1.90;;;12.60;99.90;;;;;;10497832;28;20220;-78
2021/05/04 20:27:23;;;;;;;2.17;1.63;;;12.60;99.90;;;;;;10497838;28;20680;-78
2021/05/04 20:32:24;;;;;;;2.53;2.07;;;12.60;99.90;;;;;;10491454;28;20346;-79
2021/05/04 20:37:27;;;;;;;2.27;2.10;;;12.60;99.90;;;;;;10492425;28;20222;-77
2021/05/04 20:42:28;;;;;;;1.90;1.80;;;12.60;99.90;;;;;;10479966;28;20272;-78
2021/05/04 20:47:30;;;;;;;2.63;2.50;;;12.70;99.90;;;;;;10477576;28;20211;-77
2021/05/04 20:52:33;;;;;;;2.10;2.00;;;12.70;99.90;;;;;;10473189;28;20221;-77
2021/05/04 20:57:35;;;;;;;2.27;2.17;;;12.70;99.90;;;;;;10471264;28;20243;-77
2021/05/04 21:02:37;;;;;;;2.43;2.33;;;12.70;99.90;;;;;;10464700;28;20219;-77
2021/05/04 21:07:40;;;;;;;3.73;3.43;;;12.70;99.90;;;;;;10499376;28;20274;-77
2021/05/04 21:12:42;;;;;;;3.20;2.97;;;12.70;99.90;;;;;;10481650;28;20300;-77
2021/05/04 21:17:45;;;;;;;3.60;3.40;;;12.70;99.90;;;;;;10492841;28;20192;-77
2021/05/04 21:22:53;;;;;;;4.07;3.67;;;12.60;99.90;;;;;;10491528;28;20252;-77
2021/05/04 21:27:55;;;;;;;4.40;4.00;;;12.60;99.90;;;;;;10493924;28;20201;-77
2021/05/04 21:32:57;;;;;;;4.43;4.13;;;12.50;99.90;;;;;;10498774;28;20221;-77
2021/05/04 21:38:00;;;;;;;3.90;3.60;;;12.40;99.90;;;;;;10494099;28;20228;-77
2021/05/04 21:43:02;;;;;;;4.20;3.60;;;12.40;99.90;;;;;;10498864;28;20224;-78
2021/05/04 21:48:05;;;;;;;4.63;4.23;;;12.30;99.90;;;;;;10447347;28;20200;-78
2021/05/04 21:53:12;;;;;;;4.87;4.57;;;12.30;99.90;;;;;;10470368;28;20307;-78
2021/05/04 21:58:13;;;;;;;4.70;4.47;;;12.20;99.90;;;;;;10471011;28;20200;-77
2021/05/04 22:03:15;;;;;;;4.97;4.70;;;12.20;99.90;;;;;;10447421;28;20232;-78
2021/05/04 22:08:17;;;;;;;4.67;4.47;;;12.20;99.90;;;;;;10497088;28;20220;-78
2021/05/04 22:13:25;;;;;;;4.87;4.67;;;12.20;99.90;;;;;;10455503;28;20719;-77
2021/05/04 22:29:34;;;;;;;5.00;4.80;;;12.00;99.90;;;;;;10490976;28;20309;-78
2021/05/04 22:34:47;;;;;;;5.13;4.83;;;11.90;99.90;;;;;;10466573;28;20287;-78
2021/05/04 22:39:55;;;;;;;4.90;4.70;;;11.90;99.90;;;;;;10469416;28;20237;-78
2021/05/04 22:45:14;;;;;;;3.80;3.60;;;11.80;99.90;;;;;;10476884;28;20911;-77
2021/05/04 23:16:52;;;;;;;3.47;3.37;;;10.70;99.90;;;;;;10478520;28;20215;-77
2021/05/04 23:21:54;;;;;;;3.17;3.07;;;10.60;99.90;;;;;;10484218;28;20239;-77
2021/05/04 23:26:57;;;;;;;3.50;3.40;;;10.60;99.90;;;;;;10482497;28;20225;-78
2021/05/04 23:31:58;;;;;;;3.07;2.87;;;10.60;99.90;;;;;;10487642;28;20779;-78
2021/05/04 23:37:01;;;;;;;3.10;2.90;;;10.50;99.90;;;;;;10484791;28;20407;-77
2021/05/04 23:42:04;;;;;;;3.23;3.03;;;10.40;99.90;;;;;;10483286;28;20692;-77
2021/05/04 23:47:05;;;;;;;2.87;2.77;;;10.30;99.90;;;;;;10494759;28;20216;-77
2021/05/04 23:52:07;;;;;;;2.60;2.50;;;10.30;99.90;;;;;;10491915;28;20732;-77
2021/05/04 23:57:10;;;;;;;2.80;2.70;;;10.20;99.90;;;;;;10488642;28;20185;-77
